createdAt,value
2023-04-21T00:01:59.358Z,11.50
2023-04-21T00:04:27.506Z,11.48
2023-04-21T00:06:55.602Z,11.36
2023-04-21T00:09:23.226Z,11.27
2023-04-21T00:11:50.794Z,11.19
2023-04-21T00:14:18.524Z,11.10
2023-04-21T00:16:46.020Z,11.10
2023-04-21T00:19:14.336Z,11.05
2023-04-21T00:21:41.948Z,11.07
2023-04-21T00:24:09.607Z,11.01
2023-04-21T00:26:37.350Z,10.98
2023-04-21T00:29:05.734Z,10.92
2023-04-21T00:31:33.526Z,10.93
2023-04-21T00:34:01.091Z,10.86
2023-04-21T00:36:28.757Z,10.82
2023-04-21T00:38:56.416Z,10.76
2023-04-21T00:41:24.103Z,10.75
2023-04-21T00:44:05.696Z,10.73
2023-04-21T00:46:34.444Z,10.57
2023-04-21T00:49:06.187Z,10.56
2023-04-21T00:51:35.956Z,10.59
2023-04-21T00:54:08.083Z,10.57
2023-04-21T00:56:36.763Z,10.45
2023-04-21T00:59:04.596Z,10.49
2023-04-21T01:01:34.464Z,10.43
2023-04-21T01:04:04.040Z,10.38
2023-04-21T01:06:33.152Z,10.35
2023-04-21T01:09:00.925Z,10.32
2023-04-21T01:11:28.559Z,10.35
2023-04-21T01:13:56.103Z,10.30
2023-04-21T01:16:24.559Z,10.27
2023-04-21T01:18:55.207Z,10.28
2023-04-21T01:21:23.847Z,10.23
2023-04-21T01:23:51.483Z,10.15
2023-04-21T01:26:23.102Z,10.14
2023-04-21T01:28:50.962Z,10.12
2023-04-21T01:31:18.926Z,10.05
2023-04-21T01:33:46.500Z,10.06
2023-04-21T01:36:14.070Z,10.06
2023-04-21T01:38:42.621Z,10.03
2023-04-21T01:41:10.961Z,10.01
2023-04-21T01:43:39.264Z,9.98
2023-04-21T01:46:07.667Z,9.98
2023-04-21T01:48:37.312Z,10.00
2023-04-21T01:51:06.887Z,10.00
2023-04-21T01:53:34.703Z,9.92
2023-04-21T01:56:02.805Z,10.02
2023-04-21T01:58:31.780Z,9.95
2023-04-21T02:00:59.466Z,9.91
2023-04-21T02:03:27.542Z,9.89
2023-04-21T02:05:55.372Z,9.84
2023-04-21T02:08:22.922Z,9.79
2023-04-21T02:10:50.587Z,9.71
2023-04-21T02:13:18.329Z,9.73
2023-04-21T02:15:46.646Z,9.68
2023-04-21T02:18:15.124Z,9.72
2023-04-21T02:20:42.988Z,9.79
2023-04-21T02:23:11.084Z,9.96
2023-04-21T02:25:38.760Z,9.93
2023-04-21T02:28:06.615Z,10.07
2023-04-21T02:30:35.476Z,10.01
2023-04-21T02:33:03.437Z,10.03
2023-04-21T02:35:33.920Z,10.07
2023-04-21T02:38:07.284Z,10.16
2023-04-21T02:40:35.427Z,10.25
2023-04-21T02:43:03.384Z,10.25
2023-04-21T02:45:32.325Z,10.19
2023-04-21T02:48:00.651Z,10.18
2023-04-21T02:50:31.198Z,10.15
2023-04-21T02:52:59.646Z,10.19
2023-04-21T02:55:27.309Z,10.26
2023-04-21T02:57:55.199Z,10.27
2023-04-21T03:00:24.561Z,10.32
2023-04-21T03:02:53.819Z,10.42
2023-04-21T03:05:21.948Z,10.46
2023-04-21T03:07:49.833Z,10.47
2023-04-21T03:10:17.847Z,10.42
2023-04-21T03:12:46.204Z,10.44
2023-04-21T03:15:15.124Z,10.39
2023-04-21T03:17:43.296Z,10.40
2023-04-21T03:20:12.884Z,10.47
2023-04-21T03:22:41.148Z,10.53
2023-04-21T03:25:09.128Z,10.60
2023-04-21T03:27:36.982Z,10.65
2023-04-21T03:30:05.842Z,10.72
2023-04-21T03:32:33.846Z,10.75
2023-04-21T03:35:01.663Z,10.81
2023-04-21T03:37:32.019Z,10.90
2023-04-21T03:40:01.265Z,10.99
2023-04-21T03:42:31.376Z,11.07
2023-04-21T03:45:07.219Z,11.26
2023-04-21T03:47:36.624Z,11.30
2023-04-21T03:50:05.964Z,11.37
2023-04-21T03:52:36.373Z,11.48
2023-04-21T03:55:05.332Z,11.63
2023-04-21T03:57:32.995Z,11.79
2023-04-21T04:00:00.604Z,11.90
2023-04-21T04:02:29.601Z,11.99
2023-04-21T04:05:00.558Z,12.13
2023-04-21T04:07:28.783Z,12.29
2023-04-21T04:09:56.433Z,12.38
2023-04-21T04:12:24.104Z,12.50
2023-04-21T04:14:52.148Z,12.61
2023-04-21T04:17:20.142Z,12.69
2023-04-21T04:19:48.715Z,12.75
2023-04-21T04:22:17.101Z,12.90
2023-04-21T04:24:45.307Z,12.96
2023-04-21T04:27:15.915Z,13.05
2023-04-21T04:29:46.953Z,13.19
2023-04-21T04:32:15.481Z,13.38
2023-04-21T04:34:45.379Z,13.50
2023-04-21T04:37:15.615Z,13.59
2023-04-21T04:39:44.137Z,13.68
2023-04-21T04:42:12.756Z,13.83
2023-04-21T04:44:41.714Z,13.94
2023-04-21T04:47:09.578Z,14.02
2023-04-21T04:49:38.272Z,14.17
2023-04-21T04:52:09.112Z,14.30
2023-04-21T04:54:37.291Z,14.47
2023-04-21T04:57:05.656Z,14.58
2023-04-21T04:59:33.318Z,14.66
2023-04-21T05:02:01.557Z,14.73
2023-04-21T05:04:30.137Z,14.83
2023-04-21T05:06:58.665Z,14.92
2023-04-21T05:09:26.552Z,15.07
2023-04-21T05:11:54.551Z,15.33
2023-04-21T05:14:22.473Z,15.48
2023-04-21T05:16:50.887Z,15.56
2023-04-21T05:19:18.899Z,15.73
2023-04-21T05:21:47.143Z,15.83
2023-04-21T05:24:15.206Z,15.98
2023-04-21T05:26:43.275Z,16.13
2023-04-21T05:29:12.172Z,16.30
2023-04-21T05:31:40.904Z,16.38
2023-04-21T05:34:08.653Z,16.51
2023-04-21T05:36:37.094Z,16.59
2023-04-21T05:39:05.229Z,16.71
2023-04-21T05:41:32.768Z,16.89
2023-04-21T05:44:03.244Z,17.02
2023-04-21T05:46:31.446Z,17.06
2023-04-21T05:48:59.530Z,17.11
2023-04-21T05:51:27.381Z,17.38
2023-04-21T05:53:55.067Z,17.50
2023-04-21T05:56:22.972Z,17.58
2023-04-21T05:58:50.704Z,17.65
2023-04-21T06:01:19.121Z,17.71
2023-04-21T06:03:50.407Z,17.86
2023-04-21T06:06:18.462Z,18.00
2023-04-21T06:08:46.028Z,18.18
2023-04-21T06:11:13.680Z,18.39
2023-04-21T06:13:43.452Z,18.58
2023-04-21T06:16:11.451Z,18.71
2023-04-21T06:18:42.135Z,18.84
2023-04-21T06:21:11.148Z,18.90
2023-04-21T06:23:38.684Z,19.03
2023-04-21T06:26:07.414Z,19.19
2023-04-21T06:28:36.603Z,19.48
2023-04-21T06:31:07.065Z,19.95
2023-04-21T06:33:36.834Z,20.15
2023-04-21T06:36:05.173Z,20.38
2023-04-21T06:38:32.827Z,20.56
2023-04-21T06:41:01.144Z,20.78
2023-04-21T06:43:28.993Z,20.92
2023-04-21T06:45:56.630Z,21.13
2023-04-21T06:48:24.665Z,21.50
2023-04-21T06:50:52.838Z,21.67
2023-04-21T06:53:22.008Z,21.97
2023-04-21T06:55:50.426Z,22.23
2023-04-21T06:58:20.657Z,22.38
2023-04-21T07:00:49.514Z,22.62
2023-04-21T07:03:17.657Z,23.04
2023-04-21T07:05:46.170Z,23.53
2023-04-21T07:08:13.903Z,23.59
2023-04-21T07:10:41.680Z,23.93
2023-04-21T07:13:10.080Z,24.43
2023-04-21T07:15:37.920Z,24.62
2023-04-21T07:18:05.489Z,25.03
2023-04-21T07:20:33.258Z,25.41
2023-04-21T07:23:00.891Z,25.75
2023-04-21T07:25:28.799Z,26.10
2023-04-21T07:27:56.333Z,26.53
2023-04-21T07:30:23.970Z,26.95
2023-04-21T07:32:51.720Z,27.04
2023-04-21T07:35:19.407Z,27.28
2023-04-21T07:37:47.820Z,27.49
2023-04-21T07:40:15.868Z,27.77
2023-04-21T07:42:43.776Z,27.73
2023-04-21T07:45:11.983Z,27.91
2023-04-21T07:47:39.854Z,28.16
2023-04-21T07:50:08.653Z,28.48
2023-04-21T07:52:36.671Z,28.62
2023-04-21T07:55:04.445Z,28.83
2023-04-21T07:57:37.504Z,29.13
2023-04-21T08:00:06.522Z,29.35
2023-04-21T08:02:40.511Z,29.59
2023-04-21T08:05:09.237Z,30.01
2023-04-21T08:07:37.381Z,30.39
2023-04-21T08:10:06.326Z,30.58
2023-04-21T08:12:34.408Z,30.93
2023-04-21T08:15:05.932Z,31.07
2023-04-21T08:17:34.179Z,31.22
2023-04-21T08:20:02.198Z,31.58
2023-04-21T08:22:32.662Z,31.96
2023-04-21T08:25:00.649Z,31.90
2023-04-21T08:27:28.277Z,31.99
2023-04-21T08:29:56.220Z,32.14
2023-04-21T08:32:24.696Z,32.40
2023-04-21T08:34:53.900Z,32.38
2023-04-21T08:37:23.132Z,32.38
2023-04-21T08:39:51.036Z,32.55
2023-04-21T08:42:19.306Z,32.81
2023-04-21T08:44:47.749Z,32.86
2023-04-21T08:47:15.975Z,33.05
2023-04-21T08:49:45.493Z,33.31
2023-04-21T08:52:14.075Z,33.39
2023-04-21T08:54:42.855Z,33.18
2023-04-21T08:57:15.789Z,33.28
2023-04-21T08:59:45.835Z,33.73
2023-04-21T09:02:16.168Z,33.99
2023-04-21T09:04:50.729Z,34.46
2023-04-21T09:07:36.310Z,34.86
2023-04-21T09:10:05.685Z,34.67
2023-04-21T09:12:34.807Z,34.71
2023-04-21T09:15:06.337Z,34.73
2023-04-21T09:17:37.026Z,34.83
2023-04-21T09:20:15.618Z,35.19
2023-04-21T09:22:43.334Z,34.77
2023-04-21T09:25:16.088Z,35.01
2023-04-21T09:27:43.876Z,35.25
2023-04-21T09:30:11.968Z,35.46
2023-04-21T09:32:40.871Z,35.76
2023-04-21T09:35:11.935Z,35.93
2023-04-21T09:37:43.234Z,36.02
2023-04-21T09:40:14.562Z,36.11
2023-04-21T09:42:44.567Z,36.17
2023-04-21T09:47:54.198Z,36.88
2023-04-21T09:50:51.281Z,36.94
2023-04-21T09:53:16.629Z,36.87
2023-04-21T09:55:48.073Z,36.67
2023-04-21T09:58:20.402Z,36.70
2023-04-21T10:00:49.478Z,36.91
2023-04-21T10:03:20.581Z,37.28
2023-04-21T10:05:48.326Z,37.28
2023-04-21T10:08:17.291Z,37.53
2023-04-21T10:10:46.165Z,37.91
2023-04-21T10:13:18.773Z,38.13
2023-04-21T10:15:46.672Z,38.15
2023-04-21T10:18:23.153Z,38.33
2023-04-21T10:20:59.160Z,38.36
2023-04-21T10:23:46.657Z,39.15
2023-04-21T10:26:22.431Z,38.51
2023-04-21T10:29:04.048Z,38.51
2023-04-21T10:31:53.914Z,37.43
2023-04-21T10:34:29.193Z,37.55
2023-04-21T10:36:56.763Z,38.24
2023-04-21T10:39:36.542Z,39.08
2023-04-21T10:42:26.407Z,40.10
2023-04-21T10:45:02.688Z,39.94
2023-04-21T10:47:42.872Z,40.07
2023-04-21T10:50:28.129Z,40.01
2023-04-21T10:52:58.312Z,39.75
2023-04-21T10:55:27.559Z,37.89
2023-04-21T10:57:55.699Z,36.43
2023-04-21T11:00:24.884Z,37.12
2023-04-21T11:03:03.267Z,38.35
2023-04-21T11:05:39.075Z,38.92
2023-04-21T11:08:10.354Z,39.36
2023-04-21T11:10:50.085Z,39.64
2023-04-21T11:13:20.456Z,38.81
2023-04-21T11:16:02.051Z,37.12
2023-04-21T11:18:48.259Z,34.99
2023-04-21T11:21:18.542Z,34.07
2023-04-21T11:23:51.255Z,30.56
2023-04-21T11:26:20.471Z,28.75
2023-04-21T11:28:49.812Z,27.54
2023-04-21T11:31:17.950Z,29.57
2023-04-21T11:33:45.868Z,32.38
2023-04-21T11:36:13.672Z,34.55
2023-04-21T11:38:41.949Z,35.72
2023-04-21T11:41:11.187Z,36.50
2023-04-21T11:43:39.332Z,37.74
2023-04-21T11:46:19.608Z,38.66
2023-04-21T11:48:47.597Z,39.12
2023-04-21T11:51:17.886Z,39.43
2023-04-21T11:53:49.430Z,39.67
2023-04-21T11:56:23.636Z,39.19
2023-04-21T11:58:56.360Z,36.30
2023-04-21T12:01:24.115Z,33.61
2023-04-21T12:03:55.893Z,31.45
2023-04-21T12:06:27.363Z,29.47
2023-04-21T12:09:02.887Z,27.92
2023-04-21T12:11:31.881Z,26.63
2023-04-21T12:13:59.672Z,25.66
2023-04-21T12:16:29.174Z,25.20
2023-04-21T12:18:57.878Z,26.48
2023-04-21T12:21:31.365Z,29.35
2023-04-21T12:23:58.984Z,31.98
2023-04-21T12:26:26.535Z,34.05
2023-04-21T12:28:54.772Z,35.50
2023-04-21T12:31:22.387Z,35.37
2023-04-21T12:33:50.091Z,35.28
2023-04-21T12:36:17.724Z,33.84
2023-04-21T12:38:45.380Z,33.90
2023-04-21T12:41:12.873Z,32.41
2023-04-21T12:43:40.579Z,31.35
2023-04-21T12:46:08.904Z,31.12
2023-04-21T12:48:36.886Z,29.99
2023-04-21T12:51:04.497Z,28.15
2023-04-21T12:53:32.381Z,26.66
2023-04-21T12:56:04.631Z,25.38
2023-04-21T12:58:33.622Z,24.51
2023-04-21T13:01:01.381Z,24.10
2023-04-21T13:03:29.331Z,23.73
2023-04-21T13:05:58.116Z,23.91
2023-04-21T13:08:28.792Z,24.39
2023-04-21T13:10:56.519Z,26.25
2023-04-21T13:13:24.294Z,28.20
2023-04-21T13:15:51.921Z,29.60
2023-04-21T13:18:19.795Z,29.47
2023-04-21T13:20:47.283Z,28.18
2023-04-21T13:23:16.162Z,26.68
2023-04-21T13:25:45.655Z,25.25
2023-04-21T13:28:17.300Z,23.96
2023-04-21T13:30:45.784Z,23.03
2023-04-21T13:33:14.346Z,22.39
2023-04-21T13:35:42.788Z,21.86
2023-04-21T13:38:10.590Z,21.43
2023-04-21T13:40:38.208Z,21.07
2023-04-21T13:43:06.270Z,20.67
2023-04-21T13:45:34.044Z,20.39
2023-04-21T13:48:01.860Z,20.15
2023-04-21T13:50:29.470Z,19.83
2023-04-21T13:52:57.468Z,19.47
2023-04-21T13:55:25.036Z,19.23
2023-04-21T13:57:53.239Z,19.11
2023-04-21T14:00:20.951Z,19.01
2023-04-21T14:02:48.897Z,18.93
2023-04-21T14:05:17.154Z,18.77
2023-04-21T14:07:45.007Z,18.65
2023-04-21T14:10:12.700Z,18.58
2023-04-21T14:12:40.622Z,18.41
2023-04-21T14:15:08.579Z,18.39
2023-04-21T14:17:36.176Z,18.30
2023-04-21T14:20:04.384Z,18.19
2023-04-21T14:22:32.095Z,18.15
2023-04-21T14:24:59.645Z,18.07
2023-04-21T14:27:27.723Z,18.10
2023-04-21T14:29:55.693Z,18.02
2023-04-21T14:32:23.445Z,18.12
2023-04-21T14:34:53.642Z,17.98
2023-04-21T14:37:21.755Z,17.87
2023-04-21T14:39:49.461Z,17.82
2023-04-21T14:42:18.752Z,17.72
2023-04-21T14:44:46.721Z,17.66
2023-04-21T14:47:14.794Z,17.61
2023-04-21T14:49:43.310Z,17.50
2023-04-21T14:52:11.127Z,17.49
2023-04-21T14:54:39.146Z,17.48
2023-04-21T14:57:19.878Z,17.39
2023-04-21T14:59:50.557Z,17.31
2023-04-21T15:02:20.142Z,17.28
2023-04-21T15:04:48.044Z,17.24
2023-04-21T15:07:18.703Z,17.19
2023-04-21T15:09:51.060Z,17.12
2023-04-21T15:12:19.036Z,17.13
2023-04-21T15:14:46.631Z,17.03
2023-04-21T15:17:14.593Z,16.99
2023-04-21T15:19:42.368Z,17.07
2023-04-21T15:22:12.317Z,17.18
2023-04-21T15:24:40.096Z,17.16
2023-04-21T15:27:07.648Z,17.11
2023-04-21T15:29:35.445Z,17.08
2023-04-21T15:32:03.665Z,17.06
2023-04-21T15:34:31.478Z,17.02
2023-04-21T15:36:59.159Z,17.10
2023-04-21T15:39:27.377Z,17.02
2023-04-21T15:41:56.317Z,17.05
2023-04-21T15:44:23.982Z,17.09
2023-04-21T15:46:51.612Z,17.12
2023-04-21T15:49:19.364Z,17.04
2023-04-21T15:51:47.123Z,16.98
2023-04-21T15:54:14.763Z,17.02
2023-04-21T15:56:42.332Z,16.98
2023-04-21T15:59:10.009Z,16.99
2023-04-21T16:01:37.792Z,16.97
2023-04-21T16:04:05.868Z,16.88
2023-04-21T16:06:33.665Z,16.79
2023-04-21T16:09:01.541Z,16.75
2023-04-21T16:11:29.498Z,16.72
2023-04-21T16:13:57.394Z,16.67
2023-04-21T16:16:25.180Z,16.68
2023-04-21T16:18:55.569Z,16.63
2023-04-21T16:21:23.566Z,16.53
2023-04-21T16:23:51.313Z,16.57
2023-04-21T16:26:19.453Z,16.53
2023-04-21T16:28:47.321Z,16.51
2023-04-21T16:31:14.930Z,16.45
2023-04-21T16:33:42.962Z,16.38
2023-04-21T16:36:10.745Z,16.33
2023-04-21T16:38:38.677Z,16.23
2023-04-21T16:41:06.258Z,16.17
2023-04-21T16:43:33.835Z,16.13
2023-04-21T16:46:01.306Z,16.06
2023-04-21T16:48:29.086Z,16.03
2023-04-21T16:50:56.676Z,15.98
2023-04-21T16:53:25.831Z,15.96
2023-04-21T16:55:53.569Z,15.95
2023-04-21T16:58:22.244Z,15.84
2023-04-21T17:00:50.088Z,15.89
2023-04-21T17:03:17.809Z,15.78
2023-04-21T17:05:45.737Z,15.78
2023-04-21T17:08:13.494Z,15.77
2023-04-21T17:10:41.171Z,15.75
2023-04-21T17:13:08.809Z,15.71
2023-04-21T17:15:36.690Z,15.73
2023-04-21T17:18:04.958Z,15.68
2023-04-21T17:20:32.729Z,15.66
2023-04-21T17:23:00.497Z,15.62
2023-04-21T17:25:28.160Z,15.62
2023-04-21T17:27:56.071Z,15.46
2023-04-21T17:30:23.721Z,15.56
2023-04-21T17:33:00.565Z,15.43
2023-04-21T17:35:37.977Z,15.39
2023-04-21T17:38:06.896Z,15.38
2023-04-21T17:40:34.682Z,15.36
2023-04-21T17:43:02.386Z,15.35
2023-04-21T17:45:30.048Z,15.33
2023-04-21T17:47:57.669Z,15.26
2023-04-21T17:50:27.584Z,15.25
2023-04-21T17:52:55.515Z,15.19
2023-04-21T17:55:23.390Z,15.19
2023-04-21T17:57:50.991Z,15.12
2023-04-21T18:00:20.124Z,15.06
2023-04-21T18:02:47.875Z,15.01
2023-04-21T18:05:15.940Z,15.04
2023-04-21T18:07:43.809Z,14.99
2023-04-21T18:10:11.436Z,14.92
2023-04-21T18:12:39.258Z,14.96
2023-04-21T18:15:07.473Z,14.90
2023-04-21T18:17:37.159Z,14.91
2023-04-21T18:20:06.022Z,14.90
2023-04-21T18:22:34.266Z,14.87
2023-04-21T18:25:01.967Z,14.83
2023-04-21T18:27:32.402Z,14.81
2023-04-21T18:29:59.961Z,14.78
2023-04-21T18:32:27.570Z,14.82
2023-04-21T18:34:55.303Z,14.76
2023-04-21T18:37:22.867Z,14.72
2023-04-21T18:39:50.441Z,14.72
2023-04-21T18:42:17.997Z,14.68
2023-04-21T18:44:46.465Z,14.62
2023-04-21T18:47:15.583Z,14.62
2023-04-21T18:49:43.565Z,14.55
2023-04-21T18:52:11.537Z,14.46
2023-04-21T18:54:39.365Z,14.46
2023-04-21T18:57:08.409Z,14.40
2023-04-21T18:59:36.166Z,14.34
2023-04-21T19:02:06.165Z,14.30
2023-04-21T19:04:34.146Z,14.24
2023-04-21T19:07:02.013Z,14.18
2023-04-21T19:09:29.561Z,14.16
2023-04-21T19:11:57.105Z,14.05
2023-04-21T19:14:24.720Z,14.00
2023-04-21T19:16:53.210Z,13.97
2023-04-21T19:19:21.585Z,13.93
2023-04-21T19:21:50.332Z,13.85
2023-04-21T19:24:17.853Z,13.79
2023-04-21T19:26:46.044Z,13.73
2023-04-21T19:29:15.076Z,13.69
2023-04-21T19:31:42.696Z,13.63
2023-04-21T19:34:10.384Z,13.58
2023-04-21T19:36:38.088Z,13.62
2023-04-21T19:39:07.488Z,13.60
2023-04-21T19:41:36.404Z,13.55
2023-04-21T19:44:05.642Z,13.49
2023-04-21T19:46:33.314Z,13.52
2023-04-21T19:49:00.886Z,13.44
2023-04-21T19:51:28.537Z,13.40
2023-04-21T19:54:09.953Z,13.42
2023-04-21T19:56:40.309Z,13.35
2023-04-21T19:59:07.991Z,13.28
2023-04-21T20:01:36.213Z,13.30
2023-04-21T20:04:04.480Z,13.28
2023-04-21T20:06:32.736Z,13.30
2023-04-21T20:09:05.795Z,13.29
2023-04-21T20:11:34.171Z,13.20
2023-04-21T20:14:02.005Z,13.15
2023-04-21T20:16:29.816Z,13.13
2023-04-21T20:18:57.876Z,13.12
2023-04-21T20:21:25.956Z,13.08
2023-04-21T20:23:53.478Z,13.11
2023-04-21T20:26:21.528Z,13.05
2023-04-21T20:28:49.256Z,13.01
2023-04-21T20:31:19.148Z,13.02
2023-04-21T20:33:46.850Z,12.97
2023-04-21T20:36:14.485Z,12.94
2023-04-21T20:38:42.346Z,12.90
2023-04-21T20:41:10.290Z,13.03
2023-04-21T20:43:38.969Z,13.03
2023-04-21T20:46:08.158Z,13.03
2023-04-21T20:48:36.047Z,13.07
2023-04-21T20:51:03.598Z,13.04
2023-04-21T20:53:31.188Z,13.07
2023-04-21T20:55:58.792Z,13.17
2023-04-21T20:58:26.356Z,13.16
2023-04-21T21:00:53.929Z,13.18
2023-04-21T21:03:23.456Z,13.13
2023-04-21T21:05:51.315Z,13.13
2023-04-21T21:08:19.155Z,13.07
2023-04-21T21:10:46.721Z,13.03
2023-04-21T21:13:14.280Z,12.96
2023-04-21T21:15:41.717Z,13.02
2023-04-21T21:18:09.557Z,12.96
2023-04-21T21:20:37.062Z,12.97
2023-04-21T21:23:05.007Z,12.90
2023-04-21T21:25:32.652Z,12.89
2023-04-21T21:28:00.456Z,12.84
2023-04-21T21:30:28.031Z,12.87
2023-04-21T21:32:56.087Z,12.88
2023-04-21T21:35:23.816Z,12.85
2023-04-21T21:37:51.300Z,12.90
2023-04-21T21:40:21.949Z,12.84
2023-04-21T21:42:49.585Z,12.81
2023-04-21T21:45:17.223Z,12.78
2023-04-21T21:47:45.909Z,12.76
2023-04-21T21:50:13.945Z,12.78
2023-04-21T21:52:41.746Z,12.76
2023-04-21T21:55:09.780Z,12.82
2023-04-21T21:57:37.518Z,12.80
2023-04-21T22:00:08.271Z,12.79
2023-04-21T22:02:36.385Z,12.79
2023-04-21T22:05:05.363Z,12.85
2023-04-21T22:07:33.019Z,12.84
2023-04-21T22:10:00.543Z,12.82
2023-04-21T22:12:28.256Z,12.79
2023-04-21T22:14:55.811Z,12.78
2023-04-21T22:17:23.424Z,12.84
2023-04-21T22:19:50.972Z,12.91
2023-04-21T22:22:18.699Z,12.84
2023-04-21T22:24:46.193Z,12.79
2023-04-21T22:27:13.950Z,12.78
2023-04-21T22:29:41.924Z,12.74
2023-04-21T22:32:10.117Z,12.73
2023-04-21T22:34:37.828Z,12.68
2023-04-21T22:37:05.785Z,12.63
2023-04-21T22:39:33.426Z,12.53
2023-04-21T22:42:01.059Z,12.46
2023-04-21T22:44:28.652Z,12.40
2023-04-21T22:46:56.277Z,12.33
2023-04-21T22:49:23.828Z,12.30
2023-04-21T22:51:51.587Z,12.26
2023-04-21T22:54:19.065Z,12.33
2023-04-21T22:56:47.110Z,12.33
2023-04-21T22:59:14.757Z,12.40
2023-04-21T23:01:42.415Z,12.21
2023-04-21T23:04:12.421Z,12.20
2023-04-21T23:06:40.179Z,12.07
2023-04-21T23:09:07.625Z,11.99
2023-04-21T23:11:35.328Z,11.82
2023-04-21T23:14:02.872Z,11.80
2023-04-21T23:16:30.475Z,11.74
2023-04-21T23:18:58.041Z,11.86
2023-04-21T23:21:26.266Z,11.76
2023-04-21T23:23:54.115Z,11.80
2023-04-21T23:26:21.867Z,11.74
2023-04-21T23:28:49.529Z,11.71
2023-04-21T23:31:17.133Z,11.64
2023-04-21T23:33:44.983Z,11.50
2023-04-21T23:36:12.524Z,11.53
2023-04-21T23:38:40.159Z,11.54
2023-04-21T23:41:07.819Z,11.49
2023-04-21T23:43:37.296Z,11.50
2023-04-21T23:46:05.069Z,11.48
2023-04-21T23:48:32.730Z,11.34
2023-04-21T23:51:01.167Z,11.32
2023-04-21T23:53:28.873Z,11.28
2023-04-21T23:55:56.424Z,11.25
2023-04-21T23:58:24.170Z,11.19
